sensor_id;sensor_type;location;lat;lon;timestamp;pressure;altitude;pressure_sealevel;temperature;humidity
71697;BME280;68167;59.120;37.898;2023-07-29T00:01:46;99052.34;;;15.09;79.16
71697;BME280;68167;59.120;37.898;2023-07-29T00:04:13;99032.91;;;15.03;79.22
71697;BME280;68167;59.120;37.898;2023-07-29T00:06:39;99058.00;;;15.07;78.98
71697;BME280;68167;59.120;37.898;2023-07-29T00:09:05;99047.41;;;15.02;79.35
71697;BME280;68167;59.120;37.898;2023-07-29T00:11:31;99022.38;;;14.85;79.51
71697;BME280;68167;59.120;37.898;2023-07-29T00:14:01;99051.28;;;14.96;79.61
71697;BME280;68167;59.120;37.898;2023-07-29T00:16:27;99027.25;;;14.82;79.14
71697;BME280;68167;59.120;37.898;2023-07-29T00:18:54;99071.41;;;15.07;79.13
71697;BME280;68167;59.120;37.898;2023-07-29T00:21:20;99065.84;;;15.04;79.38
71697;BME280;68167;59.120;37.898;2023-07-29T00:23:46;99063.47;;;15.02;79.24
71697;BME280;68167;59.120;37.898;2023-07-29T00:26:13;99077.75;;;15.11;79.40
71697;BME280;68167;59.120;37.898;2023-07-29T00:28:39;99012.13;;;14.64;79.50
71697;BME280;68167;59.120;37.898;2023-07-29T00:31:06;98947.56;;;14.16;79.26
71697;BME280;68167;59.120;37.898;2023-07-29T00:33:34;99045.69;;;14.84;79.45
71697;BME280;68167;59.120;37.898;2023-07-29T00:36:01;99042.72;;;14.86;79.50
71697;BME280;68167;59.120;37.898;2023-07-29T00:38:29;99079.75;;;15.06;79.62
71697;BME280;68167;59.120;37.898;2023-07-29T00:41:00;99076.66;;;15.12;79.38
71697;BME280;68167;59.120;37.898;2023-07-29T00:43:26;99062.56;;;15.07;79.86
71697;BME280;68167;59.120;37.898;2023-07-29T00:45:53;99005.84;;;14.69;79.47
71697;BME280;68167;59.120;37.898;2023-07-29T00:48:19;99073.59;;;15.05;80.05
71697;BME280;68167;59.120;37.898;2023-07-29T00:50:46;99030.72;;;14.83;79.63
71697;BME280;68167;59.120;37.898;2023-07-29T00:53:12;99063.66;;;15.06;79.68
71697;BME280;68167;59.120;37.898;2023-07-29T00:55:38;99034.97;;;14.84;79.86
71697;BME280;68167;59.120;37.898;2023-07-29T00:58:05;99084.19;;;15.10;79.61
71697;BME280;68167;59.120;37.898;2023-07-29T01:00:33;99082.91;;;15.08;80.01
71697;BME280;68167;59.120;37.898;2023-07-29T01:02:59;99082.63;;;15.09;79.71
71697;BME280;68167;59.120;37.898;2023-07-29T01:05:30;99087.00;;;15.05;79.79
71697;BME280;68167;59.120;37.898;2023-07-29T01:08:31;99093.34;;;15.09;79.46
71697;BME280;68167;59.120;37.898;2023-07-29T01:13:44;99069.25;;;14.96;80.15
71697;BME280;68167;59.120;37.898;2023-07-29T01:16:19;99067.06;;;14.98;79.89
71697;BME280;68167;59.120;37.898;2023-07-29T01:18:47;99052.44;;;14.81;79.58
71697;BME280;68167;59.120;37.898;2023-07-29T01:21:15;99090.28;;;15.02;79.66
71697;BME280;68167;59.120;37.898;2023-07-29T01:23:44;99043.72;;;14.76;79.89
71697;BME280;68167;59.120;37.898;2023-07-29T01:26:11;99086.91;;;14.97;80.00
71697;BME280;68167;59.120;37.898;2023-07-29T01:28:37;99074.16;;;14.94;80.00
71697;BME280;68167;59.120;37.898;2023-07-29T01:31:08;99087.91;;;15.01;79.97
71697;BME280;68167;59.120;37.898;2023-07-29T01:33:42;99037.69;;;14.70;79.82
71697;BME280;68167;59.120;37.898;2023-07-29T01:36:14;99075.25;;;14.93;80.02
71697;BME280;68167;59.120;37.898;2023-07-29T01:38:44;99076.47;;;14.87;79.81
71697;BME280;68167;59.120;37.898;2023-07-29T01:41:11;99043.66;;;14.67;79.86
71697;BME280;68167;59.120;37.898;2023-07-29T01:43:38;99067.03;;;14.89;79.87
71697;BME280;68167;59.120;37.898;2023-07-29T01:46:10;99066.72;;;14.91;79.82
71697;BME280;68167;59.120;37.898;2023-07-29T01:48:38;99078.72;;;14.93;79.67
71697;BME280;68167;59.120;37.898;2023-07-29T01:51:05;99036.72;;;14.66;79.89
71697;BME280;68167;59.120;37.898;2023-07-29T01:53:33;99084.13;;;15.02;79.74
71697;BME280;68167;59.120;37.898;2023-07-29T01:55:59;99087.13;;;15.00;79.74
71697;BME280;68167;59.120;37.898;2023-07-29T01:58:26;99060.50;;;14.81;80.00
71697;BME280;68167;59.120;37.898;2023-07-29T02:00:52;99088.34;;;14.94;79.69
71697;BME280;68167;59.120;37.898;2023-07-29T02:03:18;99061.59;;;14.80;79.61
71697;BME280;68167;59.120;37.898;2023-07-29T02:05:45;99096.44;;;15.03;79.34
71697;BME280;68167;59.120;37.898;2023-07-29T02:08:11;99089.91;;;14.95;79.41
71697;BME280;68167;59.120;37.898;2023-07-29T02:10:38;99059.00;;;14.75;79.42
71697;BME280;68167;59.120;37.898;2023-07-29T02:13:04;99058.34;;;14.70;79.58
71697;BME280;68167;59.120;37.898;2023-07-29T02:15:32;99090.41;;;14.97;79.12
71697;BME280;68167;59.120;37.898;2023-07-29T02:17:58;99065.13;;;14.90;79.41
71697;BME280;68167;59.120;37.898;2023-07-29T02:20:25;99044.34;;;14.73;79.34
71697;BME280;68167;59.120;37.898;2023-07-29T02:22:52;99045.50;;;14.80;79.20
71697;BME280;68167;59.120;37.898;2023-07-29T02:25:18;99053.25;;;14.82;79.12
71697;BME280;68167;59.120;37.898;2023-07-29T02:27:46;99075.59;;;15.00;79.40
71697;BME280;68167;59.120;37.898;2023-07-29T02:30:12;99083.22;;;15.06;79.36
71697;BME280;68167;59.120;37.898;2023-07-29T02:32:39;99080.13;;;15.13;79.16
71697;BME280;68167;59.120;37.898;2023-07-29T02:35:06;99053.66;;;14.98;79.27
71697;BME280;68167;59.120;37.898;2023-07-29T02:37:32;99076.84;;;15.16;78.46
71697;BME280;68167;59.120;37.898;2023-07-29T02:39:59;99098.06;;;15.26;79.08
71697;BME280;68167;59.120;37.898;2023-07-29T02:42:26;99093.72;;;15.16;78.91
71697;BME280;68167;59.120;37.898;2023-07-29T02:44:52;99094.09;;;15.24;78.92
71697;BME280;68167;59.120;37.898;2023-07-29T02:47:18;99104.09;;;15.32;78.75
71697;BME280;68167;59.120;37.898;2023-07-29T02:49:45;99056.53;;;15.01;78.67
71697;BME280;68167;59.120;37.898;2023-07-29T02:52:11;99117.38;;;15.37;78.67
71697;BME280;68167;59.120;37.898;2023-07-29T02:54:37;99113.09;;;15.36;78.47
71697;BME280;68167;59.120;37.898;2023-07-29T02:57:04;99128.28;;;15.40;78.07
71697;BME280;68167;59.120;37.898;2023-07-29T02:59:30;99097.69;;;15.19;78.27
71697;BME280;68167;59.120;37.898;2023-07-29T03:01:57;99115.13;;;15.30;78.24
71697;BME280;68167;59.120;37.898;2023-07-29T03:04:23;99141.88;;;15.44;78.22
71697;BME280;68167;59.120;37.898;2023-07-29T03:06:50;99105.91;;;15.23;78.31
71697;BME280;68167;59.120;37.898;2023-07-29T03:09:17;99152.31;;;15.45;78.31
71697;BME280;68167;59.120;37.898;2023-07-29T03:11:43;99114.31;;;15.30;78.09
71697;BME280;68167;59.120;37.898;2023-07-29T03:14:10;99081.03;;;15.08;77.99
71697;BME280;68167;59.120;37.898;2023-07-29T03:16:36;99149.22;;;15.52;78.12
71697;BME280;68167;59.120;37.898;2023-07-29T03:19:03;99160.44;;;15.54;78.11
71697;BME280;68167;59.120;37.898;2023-07-29T03:21:29;99148.59;;;15.55;77.99
71697;BME280;68167;59.120;37.898;2023-07-29T03:23:55;99143.22;;;15.55;77.91
71697;BME280;68167;59.120;37.898;2023-07-29T03:26:21;99108.25;;;15.38;77.94
71697;BME280;68167;59.120;37.898;2023-07-29T03:28:48;99135.25;;;15.64;77.87
71697;BME280;68167;59.120;37.898;2023-07-29T03:31:14;99090.19;;;15.52;77.52
71697;BME280;68167;59.120;37.898;2023-07-29T03:33:40;99090.09;;;15.57;77.40
71697;BME280;68167;59.120;37.898;2023-07-29T03:36:07;99111.06;;;15.86;77.17
71697;BME280;68167;59.120;37.898;2023-07-29T03:38:33;99060.59;;;15.66;77.18
71697;BME280;68167;59.120;37.898;2023-07-29T03:41:01;99106.09;;;16.02;76.97
71697;BME280;68167;59.120;37.898;2023-07-29T03:43:29;99101.19;;;15.95;76.21
71697;BME280;68167;59.120;37.898;2023-07-29T03:45:57;99116.88;;;16.10;76.62
71697;BME280;68167;59.120;37.898;2023-07-29T03:48:24;99092.81;;;15.97;76.32
71697;BME280;68167;59.120;37.898;2023-07-29T03:50:50;99128.00;;;16.26;76.53
71697;BME280;68167;59.120;37.898;2023-07-29T03:53:16;99103.28;;;16.07;76.43
71697;BME280;68167;59.120;37.898;2023-07-29T03:55:43;99129.16;;;16.42;76.27
71697;BME280;68167;59.120;37.898;2023-07-29T03:58:09;99133.59;;;16.47;76.04
71697;BME280;68167;59.120;37.898;2023-07-29T04:00:36;99129.81;;;16.48;76.10
71697;BME280;68167;59.120;37.898;2023-07-29T04:03:02;99138.38;;;16.59;76.04
71697;BME280;68167;59.120;37.898;2023-07-29T04:05:28;99143.34;;;16.65;76.21
71697;BME280;68167;59.120;37.898;2023-07-29T04:07:55;99116.06;;;16.50;76.12
71697;BME280;68167;59.120;37.898;2023-07-29T04:10:21;99089.75;;;16.29;76.07
71697;BME280;68167;59.120;37.898;2023-07-29T04:12:48;99094.03;;;16.30;75.82
71697;BME280;68167;59.120;37.898;2023-07-29T04:15:14;99164.84;;;16.74;75.73
71697;BME280;68167;59.120;37.898;2023-07-29T04:17:41;99126.66;;;16.46;75.95
71697;BME280;68167;59.120;37.898;2023-07-29T04:20:08;99123.66;;;16.47;75.85
71697;BME280;68167;59.120;37.898;2023-07-29T04:22:38;99122.84;;;16.47;75.77
71697;BME280;68167;59.120;37.898;2023-07-29T04:25:05;99140.94;;;16.64;75.65
71697;BME280;68167;59.120;37.898;2023-07-29T04:27:31;99148.25;;;16.72;75.59
71697;BME280;68167;59.120;37.898;2023-07-29T04:29:58;99153.81;;;16.84;75.68
71697;BME280;68167;59.120;37.898;2023-07-29T04:32:24;99141.00;;;16.81;75.61
71697;BME280;68167;59.120;37.898;2023-07-29T04:34:51;99086.19;;;16.51;75.70
71697;BME280;68167;59.120;37.898;2023-07-29T04:37:17;99155.72;;;17.01;75.30
71697;BME280;68167;59.120;37.898;2023-07-29T04:39:44;99133.09;;;16.93;75.13
71697;BME280;68167;59.120;37.898;2023-07-29T04:42:10;99130.72;;;17.00;75.13
71697;BME280;68167;59.120;37.898;2023-07-29T04:44:37;99141.34;;;17.05;75.43
71697;BME280;68167;59.120;37.898;2023-07-29T04:47:03;99085.31;;;16.73;75.05
71697;BME280;68167;59.120;37.898;2023-07-29T04:49:30;99122.81;;;17.04;74.92
71697;BME280;68167;59.120;37.898;2023-07-29T04:51:57;99092.31;;;16.83;74.74
71697;BME280;68167;59.120;37.898;2023-07-29T04:54:23;99110.47;;;16.94;74.83
71697;BME280;68167;59.120;37.898;2023-07-29T04:56:49;99090.88;;;16.85;74.58
71697;BME280;68167;59.120;37.898;2023-07-29T04:59:17;99131.06;;;17.16;74.50
71697;BME280;68167;59.120;37.898;2023-07-29T05:01:43;99125.38;;;17.18;74.33
71697;BME280;68167;59.120;37.898;2023-07-29T05:04:09;99078.38;;;16.98;74.56
71697;BME280;68167;59.120;37.898;2023-07-29T05:06:36;99074.25;;;16.92;74.52
71697;BME280;68167;59.120;37.898;2023-07-29T05:09:15;99131.38;;;17.15;74.74
71697;BME280;68167;59.120;37.898;2023-07-29T05:11:43;99127.09;;;17.13;74.52
71697;BME280;68167;59.120;37.898;2023-07-29T05:14:13;99114.44;;;17.14;74.47
71697;BME280;68167;59.120;37.898;2023-07-29T05:16:39;99126.16;;;17.27;74.39
71697;BME280;68167;59.120;37.898;2023-07-29T05:19:05;99123.47;;;17.35;74.13
71697;BME280;68167;59.120;37.898;2023-07-29T05:21:32;99076.31;;;17.21;74.42
71697;BME280;68167;59.120;37.898;2023-07-29T05:23:58;99100.34;;;17.43;74.08
71697;BME280;68167;59.120;37.898;2023-07-29T05:26:25;99109.34;;;17.56;74.34
71697;BME280;68167;59.120;37.898;2023-07-29T05:28:51;99089.59;;;17.52;73.75
71697;BME280;68167;59.120;37.898;2023-07-29T05:31:18;99105.56;;;17.65;73.75
71697;BME280;68167;59.120;37.898;2023-07-29T05:33:44;99069.63;;;17.53;73.65
71697;BME280;68167;59.120;37.898;2023-07-29T05:36:11;99031.66;;;17.45;73.25
71697;BME280;68167;59.120;37.898;2023-07-29T05:38:37;99096.91;;;17.98;73.05
71697;BME280;68167;59.120;37.898;2023-07-29T05:41:04;99091.34;;;18.03;72.81
71697;BME280;68167;59.120;37.898;2023-07-29T05:43:30;99070.28;;;18.05;72.67
71697;BME280;68167;59.120;37.898;2023-07-29T05:45:56;99093.63;;;18.22;72.41
71697;BME280;68167;59.120;37.898;2023-07-29T05:48:23;99088.56;;;18.20;72.46
71697;BME280;68167;59.120;37.898;2023-07-29T05:50:50;99088.38;;;18.25;71.97
71697;BME280;68167;59.120;37.898;2023-07-29T05:53:17;99063.75;;;18.15;71.94
71697;BME280;68167;59.120;37.898;2023-07-29T05:55:43;99086.91;;;18.36;71.56
71697;BME280;68167;59.120;37.898;2023-07-29T05:58:10;99102.38;;;18.48;71.95
71697;BME280;68167;59.120;37.898;2023-07-29T06:00:36;99061.13;;;18.27;71.50
71697;BME280;68167;59.120;37.898;2023-07-29T06:03:03;99071.06;;;18.35;71.40
71697;BME280;68167;59.120;37.898;2023-07-29T06:05:29;99089.19;;;18.55;70.70
71697;BME280;68167;59.120;37.898;2023-07-29T06:07:56;99089.97;;;18.64;70.52
71697;BME280;68167;59.120;37.898;2023-07-29T06:10:22;99078.09;;;18.57;70.29
71697;BME280;68167;59.120;37.898;2023-07-29T06:12:48;99056.72;;;18.52;69.45
71697;BME280;68167;59.120;37.898;2023-07-29T06:15:15;99096.94;;;18.86;69.21
71697;BME280;68167;59.120;37.898;2023-07-29T06:17:42;99050.78;;;18.67;69.02
71697;BME280;68167;59.120;37.898;2023-07-29T06:20:09;99039.31;;;18.70;69.20
71697;BME280;68167;59.120;37.898;2023-07-29T06:22:35;99080.28;;;19.05;68.49
71697;BME280;68167;59.120;37.898;2023-07-29T06:25:02;99078.50;;;19.09;68.30
71697;BME280;68167;59.120;37.898;2023-07-29T06:27:30;99081.94;;;19.18;68.16
71697;BME280;68167;59.120;37.898;2023-07-29T06:29:57;99084.31;;;19.20;67.93
71697;BME280;68167;59.120;37.898;2023-07-29T06:32:23;99079.22;;;19.18;67.93
71697;BME280;68167;59.120;37.898;2023-07-29T06:34:49;99016.38;;;18.85;67.89
71697;BME280;68167;59.120;37.898;2023-07-29T06:37:17;99081.06;;;19.26;67.85
71697;BME280;68167;59.120;37.898;2023-07-29T06:39:44;99090.09;;;19.30;67.88
71697;BME280;68167;59.120;37.898;2023-07-29T06:42:10;99062.00;;;19.11;67.92
71697;BME280;68167;59.120;37.898;2023-07-29T06:44:36;99049.69;;;19.01;68.11
71697;BME280;68167;59.120;37.898;2023-07-29T06:47:03;99083.84;;;19.18;68.53
71697;BME280;68167;59.120;37.898;2023-07-29T06:49:29;99100.50;;;19.20;67.86
71697;BME280;68167;59.120;37.898;2023-07-29T06:51:56;99088.97;;;19.11;67.88
71697;BME280;68167;59.120;37.898;2023-07-29T06:54:25;99054.91;;;18.85;68.05
71697;BME280;68167;59.120;37.898;2023-07-29T06:56:54;99088.59;;;19.00;67.73
71697;BME280;68167;59.120;37.898;2023-07-29T06:59:21;99093.78;;;19.05;68.11
71697;BME280;68167;59.120;37.898;2023-07-29T07:01:47;99101.34;;;19.12;67.75
71697;BME280;68167;59.120;37.898;2023-07-29T07:04:13;99088.97;;;19.11;67.17
71697;BME280;68167;59.120;37.898;2023-07-29T07:06:40;99069.69;;;19.00;67.23
71697;BME280;68167;59.120;37.898;2023-07-29T07:09:06;99039.31;;;18.91;66.90
71697;BME280;68167;59.120;37.898;2023-07-29T07:11:32;99083.22;;;19.33;66.76
71697;BME280;68167;59.120;37.898;2023-07-29T07:13:59;99101.06;;;19.46;66.48
71697;BME280;68167;59.120;37.898;2023-07-29T07:16:26;99089.34;;;19.42;66.32
71697;BME280;68167;59.120;37.898;2023-07-29T07:18:55;99104.78;;;19.54;66.48
71697;BME280;68167;59.120;37.898;2023-07-29T07:21:21;99121.97;;;19.70;66.36
71697;BME280;68167;59.120;37.898;2023-07-29T07:23:50;99097.94;;;19.56;65.62
71697;BME280;68167;59.120;37.898;2023-07-29T07:26:16;99128.28;;;19.74;64.46
71697;BME280;68167;59.120;37.898;2023-07-29T07:28:42;99141.25;;;19.81;64.34
71697;BME280;68167;59.120;37.898;2023-07-29T07:31:08;99109.19;;;19.58;64.95
71697;BME280;68167;59.120;37.898;2023-07-29T07:33:35;99132.69;;;19.79;64.66
71697;BME280;68167;59.120;37.898;2023-07-29T07:36:01;99121.28;;;19.73;64.78
71697;BME280;68167;59.120;37.898;2023-07-29T07:38:27;99162.56;;;19.94;64.57
71697;BME280;68167;59.120;37.898;2023-07-29T07:40:55;99090.75;;;19.60;64.04
71697;BME280;68167;59.120;37.898;2023-07-29T07:43:22;99159.31;;;20.01;63.36
71697;BME280;68167;59.120;37.898;2023-07-29T07:45:48;99129.97;;;19.79;62.62
71697;BME280;68167;59.120;37.898;2023-07-29T07:48:15;99166.75;;;20.04;62.84
71697;BME280;68167;59.120;37.898;2023-07-29T07:50:43;99159.63;;;19.99;63.28
71697;BME280;68167;59.120;37.898;2023-07-29T07:53:09;99183.19;;;20.11;63.19
71697;BME280;68167;59.120;37.898;2023-07-29T07:55:35;99155.81;;;20.00;62.52
71697;BME280;68167;59.120;37.898;2023-07-29T07:58:01;99178.47;;;20.20;63.13
71697;BME280;68167;59.120;37.898;2023-07-29T08:00:28;99095.19;;;19.77;63.10
71697;BME280;68167;59.120;37.898;2023-07-29T08:02:54;99176.38;;;20.38;62.59
71697;BME280;68167;59.120;37.898;2023-07-29T08:05:20;99163.19;;;20.36;62.12
71697;BME280;68167;59.120;37.898;2023-07-29T08:07:47;99100.19;;;19.99;61.86
71697;BME280;68167;59.120;37.898;2023-07-29T08:10:13;99148.41;;;20.34;60.46
71697;BME280;68167;59.120;37.898;2023-07-29T08:12:39;99103.47;;;20.05;60.24
71697;BME280;68167;59.120;37.898;2023-07-29T08:15:06;99140.06;;;20.27;60.13
71697;BME280;68167;59.120;37.898;2023-07-29T08:17:32;99104.25;;;20.05;60.46
71697;BME280;68167;59.120;37.898;2023-07-29T08:19:58;99085.91;;;19.99;60.85
71697;BME280;68167;59.120;37.898;2023-07-29T08:22:25;99111.91;;;20.16;61.55
71697;BME280;68167;59.120;37.898;2023-07-29T08:24:51;99108.66;;;20.10;61.63
71697;BME280;68167;59.120;37.898;2023-07-29T08:27:18;99077.88;;;19.90;62.52
71697;BME280;68167;59.120;37.898;2023-07-29T08:29:44;99086.00;;;20.02;62.61
71697;BME280;68167;59.120;37.898;2023-07-29T08:32:11;99101.78;;;20.13;63.27
71697;BME280;68167;59.120;37.898;2023-07-29T08:34:37;99071.94;;;20.09;63.34
71697;BME280;68167;59.120;37.898;2023-07-29T08:37:03;99048.75;;;19.96;62.83
71697;BME280;68167;59.120;37.898;2023-07-29T08:39:30;99091.41;;;20.27;63.59
71697;BME280;68167;59.120;37.898;2023-07-29T08:42:04;99095.13;;;20.34;64.43
71697;BME280;68167;59.120;37.898;2023-07-29T08:44:54;99088.25;;;20.37;64.73
71697;BME280;68167;59.120;37.898;2023-07-29T08:47:21;99075.97;;;20.27;63.68
71697;BME280;68167;59.120;37.898;2023-07-29T08:49:48;99079.69;;;20.23;63.55
71697;BME280;68167;59.120;37.898;2023-07-29T08:52:17;99061.03;;;20.05;63.46
71697;BME280;68167;59.120;37.898;2023-07-29T08:54:44;99092.66;;;20.29;63.82
71697;BME280;68167;59.120;37.898;2023-07-29T08:57:10;99080.59;;;20.27;63.79
71697;BME280;68167;59.120;37.898;2023-07-29T08:59:37;99084.09;;;20.27;63.87
71697;BME280;68167;59.120;37.898;2023-07-29T09:02:03;99024.31;;;19.92;63.11
71697;BME280;68167;59.120;37.898;2023-07-29T09:04:30;99091.88;;;20.29;62.25
71697;BME280;68167;59.120;37.898;2023-07-29T09:06:58;99034.53;;;19.87;62.76
71697;BME280;68167;59.120;37.898;2023-07-29T09:09:25;99098.97;;;20.21;62.45
71697;BME280;68167;59.120;37.898;2023-07-29T09:11:51;99088.72;;;20.02;62.21
71697;BME280;68167;59.120;37.898;2023-07-29T09:14:18;99093.13;;;20.07;62.45
71697;BME280;68167;59.120;37.898;2023-07-29T09:16:45;99109.78;;;20.09;62.47
71697;BME280;68167;59.120;37.898;2023-07-29T09:19:12;99100.56;;;20.10;62.51
71697;BME280;68167;59.120;37.898;2023-07-29T09:21:39;99096.38;;;20.13;60.67
71697;BME280;68167;59.120;37.898;2023-07-29T09:24:07;99115.41;;;20.16;60.40
71697;BME280;68167;59.120;37.898;2023-07-29T09:26:34;99079.25;;;19.96;60.90
71697;BME280;68167;59.120;37.898;2023-07-29T09:29:01;99107.19;;;20.13;59.66
71697;BME280;68167;59.120;37.898;2023-07-29T09:31:28;99076.31;;;19.89;59.10
71697;BME280;68167;59.120;37.898;2023-07-29T09:33:59;99100.66;;;20.01;58.57
71697;BME280;68167;59.120;37.898;2023-07-29T09:36:27;99039.22;;;19.53;57.50
71697;BME280;68167;59.120;37.898;2023-07-29T09:38:57;99078.97;;;19.65;57.88
71697;BME280;68167;59.120;37.898;2023-07-29T09:41:24;99106.78;;;19.78;57.81
71697;BME280;68167;59.120;37.898;2023-07-29T09:44:02;99094.59;;;19.59;57.86
71697;BME280;68167;59.120;37.898;2023-07-29T09:46:36;99113.06;;;19.69;57.92
71697;BME280;68167;59.120;37.898;2023-07-29T09:49:04;99093.84;;;19.50;58.24
71697;BME280;68167;59.120;37.898;2023-07-29T09:51:32;99110.03;;;19.50;58.04
71697;BME280;68167;59.120;37.898;2023-07-29T09:54:03;99102.19;;;19.45;58.71
71697;BME280;68167;59.120;37.898;2023-07-29T09:56:30;99078.03;;;19.28;59.14
71697;BME280;68167;59.120;37.898;2023-07-29T09:58:57;99083.75;;;19.26;60.03
71697;BME280;68167;59.120;37.898;2023-07-29T10:01:24;99066.72;;;19.14;60.48
71697;BME280;68167;59.120;37.898;2023-07-29T10:03:50;99087.78;;;19.20;61.36
71697;BME280;68167;59.120;37.898;2023-07-29T10:06:17;99075.69;;;19.05;62.44
71697;BME280;68167;59.120;37.898;2023-07-29T10:08:45;99121.22;;;19.28;62.49
71697;BME280;68167;59.120;37.898;2023-07-29T10:11:11;99105.75;;;19.16;63.24
71697;BME280;68167;59.120;37.898;2023-07-29T10:13:38;99077.34;;;18.98;63.28
71697;BME280;68167;59.120;37.898;2023-07-29T10:16:05;99109.69;;;19.19;63.86
71697;BME280;68167;59.120;37.898;2023-07-29T10:18:33;99073.38;;;18.95;64.46
71697;BME280;68167;59.120;37.898;2023-07-29T10:21:00;99114.19;;;19.15;64.92
71697;BME280;68167;59.120;37.898;2023-07-29T10:23:28;99105.28;;;19.14;65.35
71697;BME280;68167;59.120;37.898;2023-07-29T10:26:05;99107.28;;;19.05;65.52
71697;BME280;68167;59.120;37.898;2023-07-29T10:28:32;99075.44;;;18.78;64.25
71697;BME280;68167;59.120;37.898;2023-07-29T10:31:03;99055.69;;;18.65;64.87
71697;BME280;68167;59.120;37.898;2023-07-29T10:33:31;99023.81;;;18.37;64.98
71697;BME280;68167;59.120;37.898;2023-07-29T10:35:59;99039.41;;;18.53;64.31
71697;BME280;68167;59.120;37.898;2023-07-29T10:38:26;99034.06;;;18.44;64.52
71697;BME280;68167;59.120;37.898;2023-07-29T10:40:55;99060.47;;;18.59;65.10
71697;BME280;68167;59.120;37.898;2023-07-29T10:43:32;99057.50;;;18.52;65.32
71697;BME280;68167;59.120;37.898;2023-07-29T10:48:54;99071.28;;;18.51;65.09
71697;BME280;68167;59.120;37.898;2023-07-29T10:51:25;99078.13;;;18.48;63.49
71697;BME280;68167;59.120;37.898;2023-07-29T10:56:34;99012.56;;;18.15;63.76
71697;BME280;68167;59.120;37.898;2023-07-29T11:01:41;99015.91;;;18.32;64.24
71697;BME280;68167;59.120;37.898;2023-07-29T11:12:45;99055.50;;;18.91;63.98
71697;BME280;68167;59.120;37.898;2023-07-29T11:15:16;99052.78;;;18.91;63.97
71697;BME280;68167;59.120;37.898;2023-07-29T11:17:49;99016.50;;;18.67;63.71
71697;BME280;68167;59.120;37.898;2023-07-29T11:20:17;99050.56;;;18.93;64.75
71697;BME280;68167;59.120;37.898;2023-07-29T11:22:44;99068.06;;;19.07;64.52
71697;BME280;68167;59.120;37.898;2023-07-29T11:25:12;99074.22;;;19.08;64.27
71697;BME280;68167;59.120;37.898;2023-07-29T11:27:39;99025.78;;;18.79;64.95
71697;BME280;68167;59.120;37.898;2023-07-29T11:30:08;99087.25;;;19.27;63.80
71697;BME280;68167;59.120;37.898;2023-07-29T11:32:35;99073.97;;;19.22;62.99
71697;BME280;68167;59.120;37.898;2023-07-29T11:35:07;99089.41;;;19.33;64.49
71697;BME280;68167;59.120;37.898;2023-07-29T11:37:37;99090.53;;;19.32;63.62
71697;BME280;68167;59.120;37.898;2023-07-29T11:40:07;99029.75;;;18.93;62.68
71697;BME280;68167;59.120;37.898;2023-07-29T11:42:37;99091.72;;;19.23;63.09
71697;BME280;68167;59.120;37.898;2023-07-29T11:45:04;99053.59;;;18.91;63.15
71697;BME280;68167;59.120;37.898;2023-07-29T11:47:33;99059.31;;;18.90;61.22
71697;BME280;68167;59.120;37.898;2023-07-29T11:50:06;99066.03;;;18.84;60.04
71697;BME280;68167;59.120;37.898;2023-07-29T11:52:33;99094.81;;;18.92;60.07
71697;BME280;68167;59.120;37.898;2023-07-29T11:55:00;99064.78;;;18.60;60.43
71697;BME280;68167;59.120;37.898;2023-07-29T11:57:33;99050.91;;;18.41;59.64
71697;BME280;68167;59.120;37.898;2023-07-29T12:00:02;99104.66;;;18.75;59.93
71697;BME280;68167;59.120;37.898;2023-07-29T12:02:37;99086.81;;;18.62;60.11
71697;BME280;68167;59.120;37.898;2023-07-29T12:05:05;99101.84;;;18.63;60.30
71697;BME280;68167;59.120;37.898;2023-07-29T12:07:32;99085.84;;;18.58;62.09
71697;BME280;68167;59.120;37.898;2023-07-29T12:10:03;99060.25;;;18.43;60.66
71697;BME280;68167;59.120;37.898;2023-07-29T12:12:30;99094.72;;;18.59;60.86
71697;BME280;68167;59.120;37.898;2023-07-29T12:14:57;99050.63;;;18.34;60.26
71697;BME280;68167;59.120;37.898;2023-07-29T12:17:23;99085.38;;;18.56;60.10
71697;BME280;68167;59.120;37.898;2023-07-29T12:19:53;99074.19;;;18.46;60.55
71697;BME280;68167;59.120;37.898;2023-07-29T12:22:21;99091.41;;;18.53;61.12
71697;BME280;68167;59.120;37.898;2023-07-29T12:24:47;99079.38;;;18.51;60.96
71697;BME280;68167;59.120;37.898;2023-07-29T12:27:17;99063.59;;;18.40;61.70
71697;BME280;68167;59.120;37.898;2023-07-29T12:29:44;99065.03;;;18.38;61.04
71697;BME280;68167;59.120;37.898;2023-07-29T12:32:12;99098.38;;;18.63;60.74
71697;BME280;68167;59.120;37.898;2023-07-29T12:34:40;99077.28;;;18.56;60.72
71697;BME280;68167;59.120;37.898;2023-07-29T12:37:07;99081.41;;;18.62;60.52
71697;BME280;68167;59.120;37.898;2023-07-29T12:39:35;99067.47;;;18.52;60.06
71697;BME280;68167;59.120;37.898;2023-07-29T12:42:03;99035.09;;;18.31;60.83
71697;BME280;68167;59.120;37.898;2023-07-29T12:44:32;99069.53;;;18.55;60.79
71697;BME280;68167;59.120;37.898;2023-07-29T12:47:00;99080.16;;;18.51;60.97
71697;BME280;68167;59.120;37.898;2023-07-29T12:49:27;99068.47;;;18.47;61.04
71697;BME280;68167;59.120;37.898;2023-07-29T12:51:56;99064.84;;;18.43;59.49
71697;BME280;68167;59.120;37.898;2023-07-29T12:54:22;99080.50;;;18.50;59.29
71697;BME280;68167;59.120;37.898;2023-07-29T12:56:49;99084.91;;;18.54;59.91
71697;BME280;68167;59.120;37.898;2023-07-29T12:59:16;99078.53;;;18.59;60.67
71697;BME280;68167;59.120;37.898;2023-07-29T13:01:42;99084.25;;;18.57;60.25
71697;BME280;68167;59.120;37.898;2023-07-29T13:04:12;99067.28;;;18.57;60.04
71697;BME280;68167;59.120;37.898;2023-07-29T13:06:38;99051.97;;;18.49;59.67
71697;BME280;68167;59.120;37.898;2023-07-29T13:09:04;99065.41;;;18.57;59.87
71697;BME280;68167;59.120;37.898;2023-07-29T13:11:31;99083.91;;;18.67;60.01